Time;durP1;ratioP1;P1;durP2;ratioP2;P2;SDS_P1;SDS_P2;PMS_P1;PMS_P2;Temp;Humidity;BMP_temperature;BMP_pressure;BME280_temperature;BME280_humidity;BME280_pressure;Samples;Min_cycle;Max_cycle;Signal;HPM_P1;HPM_P2
2022/11/11 00:03:14;;;;;;;11.97;5.20;;;;;;;10.13;61.51;100217.94;6883413;28;20302;-81
2022/11/11 00:06:45;;;;;;;6.40;4.70;;;;;;;9.88;61.82;100208.13;6883303;28;20283;-82
2022/11/11 00:10:08;;;;;;;4.93;4.43;;;;;;;10.07;61.51;100205.97;6882281;28;20209;-81
2022/11/11 00:13:30;;;;;;;6.63;4.87;;;;;;;9.91;62.22;100227.47;6879508;28;20244;-81
2022/11/11 00:25:08;;;;;;;7.00;4.90;;;;;;;10.10;61.28;100220.97;6882127;28;20216;-81
2022/11/11 00:28:37;;;;;;;7.17;4.80;;;;;;;9.71;61.96;100219.88;6878395;28;20260;-81
2022/11/11 00:36:09;;;;;;;5.90;4.93;;;;;;;10.21;61.61;100224.16;6881643;28;20227;-82
2022/11/11 00:39:51;;;;;;;5.53;4.30;;;;;;;10.42;60.49;100220.97;6881590;28;20232;-83
2022/11/11 00:43:17;;;;;;;7.10;4.47;;;;;;;9.87;60.99;100212.66;6881597;28;20630;-81
2022/11/11 00:51:11;;;;;;;4.90;4.47;;;;;;;10.26;61.05;100229.91;6825082;29;20241;-81
2022/11/11 00:54:33;;;;;;;9.03;5.10;;;;;;;9.83;61.43;100229.31;6833898;28;20233;-81
2022/11/11 00:57:54;;;;;;;5.27;4.77;;;;;;;9.62;62.31;100243.25;6881589;28;20213;-81
2022/11/11 01:01:16;;;;;;;6.53;4.20;;;;;;;9.46;61.46;100224.34;6880759;28;20219;-82
2022/11/11 01:04:38;;;;;;;5.00;4.10;;;;;;;9.54;61.22;100240.53;6881008;28;20240;-81
2022/11/11 01:08:01;;;;;;;4.33;3.93;;;;;;;9.95;61.29;100255.78;6879814;28;20217;-81
2022/11/11 01:11:31;;;;;;;5.30;4.10;;;;;;;10.21;59.53;100261.06;6880040;28;20267;-82
2022/11/11 01:14:59;;;;;;;4.87;4.40;;;;;;;9.68;60.09;100226.44;6878416;28;20236;-81
2022/11/11 01:18:21;;;;;;;6.10;4.30;;;;;;;9.56;61.26;100251.16;6876802;28;20192;-81
2022/11/11 01:21:43;;;;;;;6.07;4.13;;;;;;;9.59;61.46;100232.81;6874381;28;20294;-81
2022/11/11 01:25:07;;;;;;;5.57;4.87;;;;;;;9.45;61.37;100168.81;6874159;28;20279;-81
2022/11/11 01:28:31;;;;;;;9.87;5.57;;;;;;;9.54;61.89;100232.47;6875576;28;20216;-81
2022/11/11 01:31:53;;;;;;;7.30;4.00;;;;;;;9.85;61.26;100203.03;6877196;28;20217;-81
2022/11/11 01:35:15;;;;;;;4.93;4.50;;;;;;;9.66;61.20;100216.81;6876584;28;20239;-81
2022/11/11 01:38:37;;;;;;;6.70;4.37;;;;;;;9.49;62.52;100248.25;6878317;28;20208;-81
2022/11/11 01:42:00;;;;;;;6.50;5.00;;;;;;;9.22;63.50;100244.97;6876767;28;20246;-81
2022/11/11 01:45:50;;;;;;;6.77;4.80;;;;;;;9.34;62.95;100246.34;6877519;28;20278;-81
2022/11/11 01:49:30;;;;;;;5.53;4.60;;;;;;;9.61;63.76;100230.78;6877633;28;20248;-81
2022/11/11 01:52:53;;;;;;;7.63;4.80;;;;;;;10.11;61.81;100236.94;6878578;28;20221;-81
2022/11/11 01:56:54;;;;;;;6.63;4.70;;;;;;;9.45;61.84;100243.38;6900340;28;20216;-80
2022/11/11 02:00:21;;;;;;;5.50;4.50;;;;;;;9.62;63.16;100240.56;6904784;28;20192;-81
2022/11/11 02:05:40;;;;;;;5.67;4.70;;;;;;;10.01;61.80;100224.63;6904266;28;20771;-80
2022/11/11 02:07:26;;;;;;;5.73;4.50;;;;;;;9.35;62.68;100242.66;6902800;28;20204;-80
2022/11/11 02:10:48;;;;;;;5.63;5.13;;;;;;;9.64;63.49;100240.41;6903747;28;20219;-81
2022/11/11 02:17:51;;;;;;;10.63;5.33;;;;;;;10.06;62.16;100227.69;6902940;28;20204;-81
2022/11/11 02:21:20;;;;;;;5.53;4.50;;;;;;;9.86;61.31;100242.47;6902509;28;20250;-81
2022/11/11 02:24:44;;;;;;;5.90;5.03;;;;;;;9.84;61.95;100261.47;6901984;28;20363;-81
2022/11/11 02:28:07;;;;;;;7.27;4.90;;;;;;;9.82;61.87;100241.09;6901547;28;20270;-81
2022/11/11 02:31:30;;;;;;;6.60;4.60;;;;;;;9.75;60.69;100240.91;6902673;28;20188;-81
2022/11/11 02:34:59;;;;;;;5.63;4.73;;;;;;;9.82;61.52;100257.28;6901690;28;20299;-81
2022/11/11 02:38:20;;;;;;;4.77;4.37;;;;;;;9.88;61.45;100257.47;6901854;28;20212;-81
2022/11/11 02:41:59;;;;;;;4.80;4.13;;;;;;;9.29;60.79;100206.47;6901613;28;20214;-81
2022/11/11 02:45:21;;;;;;;8.33;4.53;;;;;;;9.20;61.43;100239.72;6900576;28;20232;-81
2022/11/11 02:48:43;;;;;;;8.90;4.70;;;;;;;9.13;61.88;100238.69;6905273;28;20262;-81
2022/11/11 02:52:05;;;;;;;8.03;4.67;;;;;;;9.31;61.97;100260.97;6904830;28;20673;-80
2022/11/11 02:55:26;;;;;;;4.73;4.20;;;;;;;9.62;61.41;100259.41;6903591;28;20256;-80
2022/11/11 02:58:49;;;;;;;4.60;4.10;;;;;;;9.22;61.51;100240.41;6903029;28;20294;-80
2022/11/11 03:02:11;;;;;;;4.70;4.30;;;;;;;9.50;61.27;100246.41;6903300;28;20216;-80
2022/11/11 03:05:32;;;;;;;5.57;4.57;;;;;;;9.62;61.17;100223.56;6900808;28;20387;-80
2022/11/11 03:08:54;;;;;;;5.30;4.60;;;;;;;9.69;60.57;100213.81;6899517;28;20294;-80
2022/11/11 03:12:15;;;;;;;7.87;5.50;;;;;;;9.84;61.07;100231.00;6899514;28;20731;-80
2022/11/11 03:15:38;;;;;;;8.07;5.90;;;;;;;9.90;61.36;100227.63;6897959;28;20267;-80
2022/11/11 03:18:59;;;;;;;6.90;6.20;;;;;;;10.22;61.07;100230.41;6898646;28;20304;-81
2022/11/11 03:22:20;;;;;;;10.07;6.60;;;;;;;10.21;62.74;100234.94;6899927;28;20215;-81
2022/11/11 03:25:44;;;;;;;12.60;7.60;;;;;;;10.30;62.22;100233.94;6898676;28;20240;-80
2022/11/11 03:29:06;;;;;;;10.33;7.30;;;;;;;10.39;61.83;100221.31;6897679;28;20212;-80
2022/11/11 03:32:29;;;;;;;11.03;7.30;;;;;;;10.29;61.75;100223.31;6899719;28;20193;-80
2022/11/11 03:35:50;;;;;;;11.57;7.37;;;;;;;10.07;61.81;100213.22;6901493;28;20635;-80
2022/11/11 03:39:11;;;;;;;10.53;7.60;;;;;;;9.73;62.67;100224.09;6905542;28;20231;-80
2022/11/11 03:42:32;;;;;;;10.97;7.63;;;;;;;9.85;63.05;100228.16;6899870;28;20213;-81
2022/11/11 03:45:55;;;;;;;9.90;7.43;;;;;;;9.85;62.85;100221.91;6899453;28;20316;-80
2022/11/11 03:49:18;;;;;;;12.90;8.47;;;;;;;10.12;62.03;100213.56;6900927;28;20291;-81
2022/11/11 03:52:41;;;;;;;10.47;7.47;;;;;;;10.10;62.23;100237.16;6901260;28;20277;-81
2022/11/11 03:56:03;;;;;;;9.70;7.27;;;;;;;9.54;63.06;100239.69;6900909;28;20238;-81
2022/11/11 03:59:24;;;;;;;11.53;7.47;;;;;;;9.69;62.76;100229.97;6899895;28;20268;-81
2022/11/11 04:10:25;;;;;;;9.70;7.63;;;;;;;10.01;62.24;100262.34;6907753;28;20200;-81
2022/11/11 04:17:37;;;;;;;8.90;7.43;;;;;;;10.04;61.91;100264.75;6907634;28;20209;-80
2022/11/11 04:35:38;;;;;;;11.87;9.13;;;;;;;10.35;61.93;100236.13;6896463;28;20224;-80
2022/11/11 04:42:40;;;;;;;10.10;8.13;;;;;;;10.20;61.90;100235.09;6908173;28;20798;-80
2022/11/11 04:46:01;;;;;;;10.73;8.07;;;;;;;10.30;61.14;100227.69;6905568;28;20228;-80
2022/11/11 04:49:22;;;;;;;9.80;8.10;;;;;;;10.34;61.33;100250.63;6908242;28;20295;-81
2022/11/11 04:52:44;;;;;;;11.63;8.43;;;;;;;10.06;62.53;100252.81;6901111;28;20267;-81
2022/11/11 04:59:49;;;;;;;9.93;8.80;;;;;;;9.97;63.77;100283.41;6912839;28;20264;-80
2022/11/11 05:03:17;;;;;;;12.07;9.10;;;;;;;10.23;62.84;100296.78;6907691;28;20239;-80
2022/11/11 05:10:18;;;;;;;11.17;8.50;;;;;;;10.58;61.57;100316.16;6901478;28;20188;-82
2022/11/11 05:28:16;;;;;;;14.50;10.93;;;;;;;10.31;60.86;100334.53;6846386;28;20736;-82
2022/11/11 05:31:38;;;;;;;11.50;9.07;;;;;;;10.17;60.74;100327.91;6868382;28;20324;-82
2022/11/11 05:35:01;;;;;;;9.30;8.00;;;;;;;10.23;60.44;100329.13;6868103;28;20264;-81
2022/11/11 05:38:22;;;;;;;12.43;7.60;;;;;;;10.31;61.06;100338.06;6883880;28;20208;-82
2022/11/11 05:41:44;;;;;;;10.23;8.10;;;;;;;10.37;60.89;100345.50;6895435;28;20208;-81
2022/11/11 05:45:06;;;;;;;8.40;7.37;;;;;;;10.05;60.58;100290.69;6894657;28;20287;-82
2022/11/11 05:48:28;;;;;;;10.77;7.63;;;;;;;10.28;61.16;100326.78;6896371;28;20200;-81
2022/11/11 05:51:52;;;;;;;10.10;7.67;;;;;;;10.39;60.84;100346.16;6895744;28;20263;-81
2022/11/11 05:55:13;;;;;;;7.60;6.90;;;;;;;10.36;61.05;100348.34;6896420;28;20356;-81
2022/11/11 05:58:35;;;;;;;9.67;7.90;;;;;;;10.09;60.58;100360.25;6898911;28;20236;-80
2022/11/11 06:01:56;;;;;;;10.87;8.63;;;;;;;9.85;61.37;100361.97;6898333;28;20263;-81
2022/11/11 06:05:20;;;;;;;9.03;8.03;;;;;;;9.82;61.15;100356.94;6898351;28;20259;-81
2022/11/11 06:08:43;;;;;;;11.77;8.37;;;;;;;9.98;61.72;100373.16;6900939;28;20219;-81
2022/11/11 06:12:05;;;;;;;13.20;7.73;;;;;;;10.03;61.62;100385.16;6900762;28;20231;-82
2022/11/11 06:15:27;;;;;;;10.30;8.13;;;;;;;10.24;61.52;100377.50;6897466;28;20316;-81
2022/11/11 06:18:49;;;;;;;11.63;7.97;;;;;;;10.50;62.01;100380.91;6888166;28;20236;-79
2022/11/11 06:22:11;;;;;;;14.87;8.20;;;;;;;10.44;61.70;100369.91;6888238;28;20231;-84
2022/11/11 06:29:17;;;;;;;9.17;7.27;;;;;;;10.34;61.37;100396.22;6881038;28;20209;-85
2022/11/11 06:32:38;;;;;;;9.37;7.37;;;;;;;10.32;61.98;100388.28;6903117;28;20741;-80
2022/11/11 06:36:00;;;;;;;8.43;7.60;;;;;;;10.47;60.91;100401.97;6901113;28;20322;-82
2022/11/11 06:39:24;;;;;;;9.90;7.40;;;;;;;10.29;60.51;100385.94;6900915;28;20329;-81
2022/11/11 06:42:47;;;;;;;9.50;6.80;;;;;;;10.26;60.84;100399.72;6875520;28;20777;-84
2022/11/11 06:46:16;;;;;;;10.43;7.57;;;;;;;10.47;61.37;100416.31;6877746;28;20291;-82
2022/11/11 06:49:37;;;;;;;7.77;6.40;;;;;;;10.53;60.40;100417.47;6882749;28;20681;-82
2022/11/11 06:53:04;;;;;;;7.70;6.90;;;;;;;10.53;60.80;100402.16;6882684;28;20211;-81
2022/11/11 06:56:26;;;;;;;11.13;7.00;;;;;;;10.44;60.64;100389.66;6877129;28;20244;-82
2022/11/11 06:59:49;;;;;;;11.63;7.57;;;;;;;10.47;60.46;100402.81;6879701;28;20572;-82
2022/11/11 07:03:13;;;;;;;15.57;7.50;;;;;;;10.50;60.91;100386.28;6882262;28;20232;-82
2022/11/11 07:06:34;;;;;;;8.43;7.53;;;;;;;10.70;61.23;100403.84;6877996;28;20365;-82
2022/11/11 07:09:56;;;;;;;8.97;7.17;;;;;;;10.69;61.04;100374.34;6896087;28;20212;-82
2022/11/11 07:13:17;;;;;;;12.57;9.17;;;;;;;10.74;61.31;100390.88;6886062;28;20272;-84
2022/11/11 07:16:40;;;;;;;9.80;8.60;;;;;;;10.93;60.75;100401.34;6871509;28;20255;-84
2022/11/11 07:20:02;;;;;;;9.93;7.00;;;;;;;11.16;60.51;100415.84;6897622;28;20236;-84
2022/11/11 07:23:23;;;;;;;9.63;6.23;;;;;;;10.68;60.63;100351.91;6899741;28;20256;-84
2022/11/11 07:26:45;;;;;;;7.43;6.63;;;;;;;11.25;59.64;100409.41;6890614;28;20197;-84
2022/11/11 07:30:09;;;;;;;8.37;6.73;;;;;;;10.87;60.73;100404.72;6883308;28;20207;-84
2022/11/11 07:33:53;;;;;;;11.30;7.77;;;;;;;11.14;61.13;100412.44;6898007;28;20243;-84
2022/11/11 07:49:25;;;;;;;7.13;5.80;;;;;;;11.63;60.28;100411.41;6780337;29;20293;-83
2022/11/11 07:52:49;;;;;;;6.80;5.60;;;;;;;11.68;60.14;100417.16;6786536;29;20286;-83
2022/11/11 07:56:11;;;;;;;5.77;5.27;;;;;;;11.98;59.46;100400.16;6787795;29;20665;-81
2022/11/11 07:59:32;;;;;;;6.20;5.60;;;;;;;11.93;59.05;100411.47;6788432;29;20339;-82
2022/11/11 08:02:54;;;;;;;8.07;5.17;;;;;;;12.08;59.36;100385.38;6787214;29;20243;-82
2022/11/11 08:06:17;;;;;;;5.50;5.00;;;;;;;12.41;58.87;100391.47;6786606;29;20301;-82
2022/11/11 08:09:38;;;;;;;7.20;5.73;;;;;;;12.65;58.63;100402.97;6786662;29;20356;-82
2022/11/11 08:16:40;;;;;;;8.30;5.53;;;;;;;12.97;57.50;100388.38;6895985;28;20211;-82
2022/11/11 08:20:01;;;;;;;5.50;4.90;;;;;;;13.43;55.87;100404.38;6880559;28;20291;-81
2022/11/11 08:23:31;;;;;;;6.03;5.03;;;;;;;13.45;55.70;100390.66;6890358;28;20255;-81
2022/11/11 08:26:53;;;;;;;5.30;4.73;;;;;;;13.56;54.57;100384.75;6894759;28;20684;-82
2022/11/11 08:30:15;;;;;;;5.00;4.23;;;;;;;13.68;55.23;100399.56;6894775;28;20212;-82
2022/11/11 08:33:37;;;;;;;5.73;5.00;;;;;;;14.16;53.76;100402.50;6895259;28;20705;-82
2022/11/11 08:36:58;;;;;;;6.23;5.43;;;;;;;14.34;53.88;100394.00;6891078;28;20296;-80
2022/11/11 08:40:22;;;;;;;6.60;5.13;;;;;;;14.70;52.76;100403.78;6890332;28;20328;-80
2022/11/11 08:43:43;;;;;;;5.37;4.90;;;;;;;14.62;53.07;100403.94;6892755;28;20311;-80
2022/11/11 08:47:05;;;;;;;5.27;4.80;;;;;;;14.43;52.68;100392.84;6887555;28;20208;-80
2022/11/11 08:50:26;;;;;;;6.90;4.70;;;;;;;14.28;53.07;100392.03;6883227;28;20312;-80
2022/11/11 08:53:48;;;;;;;5.83;4.90;;;;;;;14.14;53.72;100393.72;6892135;28;20826;-80
2022/11/11 08:57:11;;;;;;;5.10;4.60;;;;;;;14.28;54.22;100406.44;6895872;28;20251;-80
2022/11/11 09:00:34;;;;;;;5.97;4.40;;;;;;;14.70;53.44;100409.22;6895139;28;20528;-80
2022/11/11 09:03:56;;;;;;;5.10;4.40;;;;;;;14.89;53.27;100407.75;6892158;28;20326;-78
2022/11/11 09:07:17;;;;;;;5.80;4.40;;;;;;;15.32;53.15;100413.00;6921217;28;20228;-78
2022/11/11 09:10:39;;;;;;;6.77;4.30;;;;;;;15.43;51.29;100403.47;6921117;28;20294;-78
2022/11/11 09:14:02;;;;;;;5.77;4.13;;;;;;;15.43;51.51;100415.19;6920676;28;20313;-78
2022/11/11 09:17:23;;;;;;;6.37;4.80;;;;;;;15.48;51.73;100407.28;6921643;28;20239;-78
2022/11/11 09:20:45;;;;;;;4.47;4.07;;;;;;;15.94;50.45;100413.03;6921103;28;20216;-78
2022/11/11 09:24:06;;;;;;;5.33;4.20;;;;;;;15.79;50.07;100380.50;6920442;28;20354;-77
2022/11/11 09:27:28;;;;;;;5.50;4.20;;;;;;;16.04;50.79;100399.91;6889817;28;20301;-78
2022/11/11 09:30:51;;;;;;;5.53;4.17;;;;;;;16.27;49.62;100400.44;6888756;28;20691;-78
2022/11/11 09:34:13;;;;;;;4.60;3.90;;;;;;;16.60;49.73;100387.78;6889532;28;20232;-78
2022/11/11 09:37:34;;;;;;;4.50;4.00;;;;;;;17.00;49.61;100397.72;6892671;28;20220;-78
2022/11/11 09:41:03;;;;;;;9.13;4.80;;;;;;;16.55;49.58;100379.41;6892439;28;20200;-78
2022/11/11 09:44:39;;;;;;;4.33;3.93;;;;;;;16.84;49.11;100385.34;6866962;28;20238;-78
2022/11/11 09:48:11;;;;;;;4.50;4.10;;;;;;;16.74;49.11;100389.53;6867442;28;20307;-77
2022/11/11 09:51:40;;;;;;;4.80;3.53;;;;;;;16.92;48.46;100389.78;6883649;28;20738;-78
2022/11/11 09:55:04;;;;;;;6.90;4.20;;;;;;;17.33;48.46;100387.69;6893852;28;20354;-78
2022/11/11 09:58:29;;;;;;;7.03;3.90;;;;;;;17.32;48.70;100383.28;6893613;28;20335;-78
2022/11/11 10:01:54;;;;;;;4.93;3.63;;;;;;;17.53;48.23;100386.66;6893668;28;20312;-78
2022/11/11 10:05:21;;;;;;;4.70;4.30;;;;;;;17.92;46.61;100374.84;6892591;28;20313;-78
2022/11/11 10:08:46;;;;;;;4.27;3.63;;;;;;;17.76;46.59;100372.56;6892951;28;20287;-78
2022/11/11 10:12:11;;;;;;;9.23;3.40;;;;;;;17.93;47.38;100374.59;6887335;28;20296;-78
2022/11/11 10:15:35;;;;;;;6.77;3.50;;;;;;;18.04;47.02;100363.03;6919535;28;20236;-78
2022/11/11 10:19:08;;;;;;;3.80;3.00;;;;;;;17.69;46.75;100328.91;6920106;28;20301;-78
2022/11/11 10:22:35;;;;;;;4.27;3.13;;;;;;;17.94;46.75;100349.00;6919928;28;20205;-78
2022/11/11 10:25:57;;;;;;;3.37;2.97;;;;;;;18.21;46.37;100364.22;6919694;28;20293;-77
2022/11/11 10:29:20;;;;;;;5.07;3.20;;;;;;;18.58;45.76;100363.44;6919054;28;20345;-78
2022/11/11 10:32:42;;;;;;;4.87;2.90;;;;;;;18.46;44.98;100373.38;6919564;28;20718;-78
2022/11/11 10:36:05;;;;;;;6.47;3.50;;;;;;;18.49;45.72;100370.22;6920347;28;20231;-77
2022/11/11 10:39:34;;;;;;;5.53;3.10;;;;;;;17.07;48.20;100353.09;6920487;28;20640;-77
2022/11/11 10:42:56;;;;;;;3.57;2.90;;;;;;;18.61;45.63;100357.56;6895704;28;20246;-78
2022/11/11 10:46:20;;;;;;;4.57;3.30;;;;;;;18.97;45.01;100365.06;6892761;28;20239;-78
2022/11/11 10:49:47;;;;;;;4.03;3.07;;;;;;;18.32;46.13;100360.00;6892688;28;20347;-78
2022/11/11 10:53:13;;;;;;;2.97;2.73;;;;;;;19.11;44.74;100355.72;6892217;28;20263;-78
2022/11/11 10:56:39;;;;;;;3.93;2.77;;;;;;;19.22;44.86;100353.13;6892446;28;20270;-78
2022/11/11 11:00:04;;;;;;;3.03;2.73;;;;;;;19.50;43.80;100326.16;6891987;28;20303;-78
2022/11/11 11:03:30;;;;;;;3.60;2.90;;;;;;;19.74;42.73;100347.16;6892195;28;20233;-78
2022/11/11 11:06:52;;;;;;;5.77;3.00;;;;;;;19.30;43.92;100341.09;6894699;28;20191;-78
2022/11/11 11:10:16;;;;;;;5.60;3.40;;;;;;;19.16;44.68;100339.50;6898223;28;20278;-77
2022/11/11 11:13:41;;;;;;;4.10;3.63;;;;;;;19.19;44.95;100339.88;6897599;28;20366;-78
2022/11/11 11:17:09;;;;;;;5.43;3.50;;;;;;;18.93;45.24;100310.00;6897042;28;20351;-77
2022/11/11 11:20:30;;;;;;;7.10;3.57;;;;;;;19.29;45.66;100325.75;6897814;28;20275;-78
2022/11/11 11:23:52;;;;;;;4.53;3.67;;;;;;;18.93;45.18;100317.41;6897112;28;20268;-78
2022/11/11 11:27:25;;;;;;;8.10;4.40;;;;;;;18.99;45.71;100320.06;6897364;28;20280;-78
2022/11/11 11:30:58;;;;;;;3.63;3.20;;;;;;;18.67;46.00;100307.50;6895110;28;20335;-77
2022/11/11 11:34:20;;;;;;;6.67;4.03;;;;;;;19.25;45.48;100321.75;6896777;28;20251;-76
2022/11/11 11:37:49;;;;;;;6.40;3.43;;;;;;;18.81;46.26;100317.25;6896974;28;20713;-76
2022/11/11 11:41:11;;;;;;;6.27;3.50;;;;;;;18.86;46.26;100305.69;6896227;28;20210;-76
2022/11/11 11:44:34;;;;;;;4.53;3.67;;;;;;;19.07;46.81;100308.00;6896630;28;20768;-79
2022/11/11 11:48:12;;;;;;;4.43;3.23;;;;;;;18.55;48.03;100327.53;6897369;28;20295;-77
2022/11/11 11:51:37;;;;;;;10.00;5.97;;;;;;;18.68;47.84;100292.75;6896765;28;20446;-76
2022/11/11 11:55:03;;;;;;;13.33;9.43;;;;;;;19.31;47.04;100324.47;6896055;28;20224;-78
2022/11/11 11:58:33;;;;;;;9.07;5.83;;;;;;;19.96;45.07;100320.16;6895630;28;20290;-77
2022/11/11 12:02:00;;;;;;;10.67;7.17;;;;;;;20.13;43.97;100319.38;6897106;28;20283;-76
2022/11/11 12:05:27;;;;;;;5.63;4.03;;;;;;;20.43;44.78;100322.13;6896236;28;20295;-77
2022/11/11 12:08:59;;;;;;;5.00;3.40;;;;;;;20.84;43.55;100326.56;6896781;28;20250;-76
2022/11/11 12:12:26;;;;;;;5.33;3.60;;;;;;;20.89;43.59;100319.56;6896226;28;20303;-76
2022/11/11 12:15:54;;;;;;;4.10;3.50;;;;;;;20.52;44.55;100290.59;6894566;28;20461;-76
2022/11/11 12:19:29;;;;;;;5.07;2.97;;;;;;;20.73;43.37;100307.34;6895363;28;20193;-76
2022/11/11 12:23:06;;;;;;;5.37;3.33;;;;;;;20.65;43.83;100307.69;6895193;28;20255;-75
2022/11/11 12:26:35;;;;;;;2.97;2.67;;;;;;;20.42;43.37;100293.06;6895808;28;20304;-77
2022/11/11 12:30:04;;;;;;;4.67;3.27;;;;;;;20.66;43.98;100298.38;6894714;28;20197;-77
2022/11/11 12:33:41;;;;;;;10.03;9.03;;;;;;;20.43;42.51;100284.59;6894855;28;20224;-77
2022/11/11 12:37:10;;;;;;;5.73;3.43;;;;;;;20.91;41.82;100298.22;6895181;28;20669;-78
2022/11/11 12:40:43;;;;;;;2.93;2.50;;;;;;;21.18;41.58;100289.34;6895550;28;20227;-79
2022/11/11 12:44:07;;;;;;;4.37;2.97;;;;;;;20.35;44.00;100284.09;6894777;28;20769;-78
2022/11/11 12:47:37;;;;;;;2.97;2.60;;;;;;;20.99;42.75;100297.91;6895918;28;20283;-78
2022/11/11 12:51:03;;;;;;;5.07;3.00;;;;;;;20.23;43.51;100278.56;6895184;28;20236;-78
2022/11/11 12:54:32;;;;;;;2.90;2.60;;;;;;;20.60;42.54;100291.09;6893624;28;20358;-77
2022/11/11 12:58:07;;;;;;;3.50;3.07;;;;;;;20.26;43.96;100280.84;6894674;28;20290;-80
2022/11/11 13:01:38;;;;;;;3.70;2.87;;;;;;;19.85;44.99;100299.03;6895703;28;20219;-78
2022/11/11 13:05:07;;;;;;;5.23;3.20;;;;;;;20.07;44.65;100278.34;6894152;28;20220;-78
2022/11/11 13:08:48;;;;;;;5.40;4.60;;;;;;;20.52;43.65;100285.13;6894789;28;20279;-78
2022/11/11 13:12:15;;;;;;;3.97;3.60;;;;;;;19.89;44.50;100270.13;6893585;28;20653;-78
2022/11/11 13:15:38;;;;;;;6.97;5.87;;;;;;;20.35;44.12;100273.94;6893529;28;20706;-78
2022/11/11 13:19:03;;;;;;;5.87;3.63;;;;;;;20.52;43.75;100277.72;6894247;28;20297;-78
2022/11/11 13:22:26;;;;;;;5.33;3.60;;;;;;;20.46;43.43;100272.34;6894761;28;20494;-77
2022/11/11 13:25:49;;;;;;;5.47;2.97;;;;;;;20.30;44.39;100273.00;6893821;28;20315;-77
2022/11/11 13:29:35;;;;;;;4.77;3.00;;;;;;;20.33;44.19;100278.03;6892502;28;20234;-77
2022/11/11 13:33:03;;;;;;;3.47;3.17;;;;;;;19.99;45.08;100286.88;6893073;28;20323;-77
2022/11/11 13:36:27;;;;;;;5.67;3.00;;;;;;;19.75;45.55;100271.38;6892615;28;20259;-77
2022/11/11 13:39:50;;;;;;;3.60;3.13;;;;;;;19.56;45.72;100278.72;6893785;28;20247;-75
2022/11/11 13:43:19;;;;;;;5.40;3.40;;;;;;;19.93;45.06;100268.63;6892497;28;20239;-75
2022/11/11 13:46:42;;;;;;;4.00;3.60;;;;;;;20.17;44.80;100274.00;6893295;28;20283;-75
2022/11/11 13:50:08;;;;;;;4.60;2.97;;;;;;;20.19;44.24;100254.59;6892940;28;20315;-76
2022/11/11 13:53:31;;;;;;;5.97;3.37;;;;;;;19.93;45.44;100260.41;6892540;28;20319;-75
2022/11/11 13:56:53;;;;;;;4.77;3.27;;;;;;;20.19;44.90;100262.81;6892343;28;20224;-75
2022/11/11 14:00:25;;;;;;;3.83;3.20;;;;;;;20.00;44.82;100242.00;6893567;28;20303;-75
2022/11/11 14:04:01;;;;;;;5.23;3.50;;;;;;;19.88;44.82;100260.25;6892377;28;20315;-75
2022/11/11 14:07:48;;;;;;;4.23;2.67;;;;;;;19.77;45.19;100275.56;6895580;28;20205;-75
2022/11/11 14:11:27;;;;;;;6.57;3.00;;;;;;;19.64;46.23;100291.28;6891689;28;20208;-75
2022/11/11 14:14:56;;;;;;;4.57;3.00;;;;;;;19.89;45.58;100276.47;6894288;28;20315;-76
2022/11/11 14:18:36;;;;;;;6.40;3.83;;;;;;;19.92;45.83;100275.16;6892510;28;20285;-75
2022/11/11 14:21:58;;;;;;;4.73;3.00;;;;;;;19.57;46.82;100266.72;6892921;28;20327;-75
2022/11/11 14:25:25;;;;;;;3.83;2.97;;;;;;;19.89;46.11;100286.56;6891545;28;20355;-75
2022/11/11 14:28:52;;;;;;;4.73;3.10;;;;;;;20.20;45.84;100289.13;6891418;28;20260;-75
2022/11/11 14:32:42;;;;;;;3.40;3.13;;;;;;;20.28;45.47;100286.91;6891967;28;20287;-75
2022/11/11 14:36:10;;;;;;;4.10;2.83;;;;;;;20.30;45.32;100292.16;6892477;28;20796;-75
2022/11/11 14:39:36;;;;;;;4.40;3.17;;;;;;;20.32;44.75;100281.81;6892532;28;20283;-75
2022/11/11 14:43:00;;;;;;;6.17;3.17;;;;;;;20.18;45.98;100289.38;6895734;28;20241;-75
2022/11/11 14:46:21;;;;;;;3.93;2.77;;;;;;;19.94;47.10;100270.28;6897366;28;20764;-76
2022/11/11 14:49:49;;;;;;;3.97;2.50;;;;;;;19.58;48.01;100267.56;6897833;28;20697;-76
2022/11/11 14:53:15;;;;;;;3.03;2.70;;;;;;;19.60;47.84;100268.16;6896946;28;20239;-76
2022/11/11 14:56:36;;;;;;;3.83;2.53;;;;;;;19.48;48.30;100281.78;6897331;28;20729;-76
2022/11/11 15:00:00;;;;;;;5.13;3.30;;;;;;;19.20;48.49;100270.47;6897003;28;20299;-77
2022/11/11 15:03:27;;;;;;;4.57;2.60;;;;;;;19.20;48.90;100289.59;6895872;28;20231;-76
2022/11/11 15:06:53;;;;;;;3.80;2.80;;;;;;;19.12;49.05;100286.31;6897081;28;20281;-76
2022/11/11 15:10:20;;;;;;;7.23;3.00;;;;;;;18.82;49.61;100279.84;6897245;28;20546;-76
2022/11/11 15:13:58;;;;;;;3.70;2.70;;;;;;;18.60;49.94;100279.38;6896428;28;20236;-76
2022/11/11 15:17:25;;;;;;;3.83;2.73;;;;;;;18.53;49.98;100281.31;6896977;28;20299;-75
2022/11/11 15:20:56;;;;;;;5.77;4.10;;;;;;;18.15;51.78;100298.72;6897430;28;20277;-75
2022/11/11 15:24:25;;;;;;;9.80;5.53;;;;;;;18.32;51.74;100292.56;6896999;28;20232;-75
2022/11/11 15:27:52;;;;;;;6.80;4.60;;;;;;;18.14;52.21;100286.97;6896623;28;20278;-75
2022/11/11 15:31:20;;;;;;;7.77;4.43;;;;;;;17.88;52.52;100292.53;6896163;28;20278;-75
2022/11/11 15:34:45;;;;;;;4.93;4.43;;;;;;;17.63;53.54;100288.84;6895973;28;20321;-75
2022/11/11 15:38:11;;;;;;;5.37;4.10;;;;;;;17.73;53.30;100291.97;6895931;28;20682;-75
2022/11/11 15:41:36;;;;;;;7.23;4.97;;;;;;;17.37;54.62;100301.69;6896431;28;20339;-75
2022/11/11 15:44:59;;;;;;;5.50;4.47;;;;;;;17.16;54.73;100296.50;6896074;28;20324;-75
2022/11/11 15:48:23;;;;;;;6.43;4.50;;;;;;;17.00;55.62;100294.19;6895980;28;20234;-76
2022/11/11 15:51:46;;;;;;;9.17;5.10;;;;;;;17.15;54.88;100303.00;6895973;28;20249;-75
2022/11/11 15:55:21;;;;;;;7.40;5.77;;;;;;;16.83;55.51;100293.78;6896002;28;20263;-77
2022/11/11 15:58:42;;;;;;;7.60;5.07;;;;;;;16.77;55.60;100307.38;6896705;28;20302;-77
2022/11/11 16:02:07;;;;;;;7.00;4.73;;;;;;;16.66;55.71;100297.94;6894565;28;20226;-76
2022/11/11 16:05:30;;;;;;;6.17;5.20;;;;;;;15.73;58.65;100307.03;6893486;28;20229;-77
2022/11/11 16:08:55;;;;;;;6.83;4.83;;;;;;;16.17;57.75;100299.28;6895271;28;20209;-77
2022/11/11 16:12:19;;;;;;;8.37;5.53;;;;;;;16.44;56.14;100298.31;6893787;28;20214;-77
2022/11/11 16:15:44;;;;;;;9.73;5.43;;;;;;;16.31;56.04;100300.97;6893624;28;20363;-76
2022/11/11 16:19:08;;;;;;;11.50;6.33;;;;;;;15.94;56.98;100294.19;6893197;28;20309;-77
2022/11/11 16:22:32;;;;;;;8.73;6.87;;;;;;;15.70;57.72;100288.41;6892700;28;20299;-77
2022/11/11 16:25:58;;;;;;;12.87;8.97;;;;;;;15.47;58.02;100287.88;6893212;28;20358;-76
2022/11/11 16:29:20;;;;;;;9.23;7.60;;;;;;;15.66;57.86;100292.56;6890027;28;20297;-76
2022/11/11 16:32:41;;;;;;;13.10;8.23;;;;;;;15.59;57.67;100295.25;6891948;28;20208;-76
2022/11/11 16:36:09;;;;;;;10.30;6.90;;;;;;;15.42;57.86;100303.94;6892041;28;20219;-76
2022/11/11 16:39:32;;;;;;;13.23;7.90;;;;;;;15.54;57.37;100296.88;6892046;28;20692;-77
2022/11/11 16:43:16;;;;;;;10.53;7.97;;;;;;;15.34;57.60;100302.19;6890238;28;20303;-76
2022/11/11 16:46:44;;;;;;;10.83;7.97;;;;;;;15.22;58.05;100305.66;6891069;28;20236;-77
2022/11/11 16:50:07;;;;;;;21.33;11.07;;;;;;;15.19;57.50;100309.59;6891557;28;20215;-76
2022/11/11 16:53:32;;;;;;;18.07;10.70;;;;;;;15.05;57.71;100282.53;6892299;28;20651;-77
2022/11/11 16:57:02;;;;;;;16.17;10.23;;;;;;;15.04;57.98;100305.31;6893084;28;20253;-77
2022/11/11 17:00:25;;;;;;;14.83;8.77;;;;;;;14.99;58.14;100305.88;6891924;28;20246;-77
2022/11/11 17:03:53;;;;;;;11.07;6.33;;;;;;;14.89;58.01;100305.41;6890666;28;20261;-77
2022/11/11 17:07:32;;;;;;;13.27;8.13;;;;;;;14.68;58.20;100312.75;6892778;28;20273;-79
2022/11/11 17:10:53;;;;;;;10.23;8.20;;;;;;;14.80;58.17;100313.88;6891926;28;20303;-79
2022/11/11 17:14:15;;;;;;;24.23;15.60;;;;;;;14.67;58.04;100311.03;6895920;28;20760;-80
2022/11/11 17:17:38;;;;;;;13.03;9.20;;;;;;;14.53;58.78;100323.66;6895432;28;20267;-79
2022/11/11 17:21:00;;;;;;;15.43;10.03;;;;;;;14.67;58.50;100313.75;6893137;28;20277;-79
2022/11/11 17:24:22;;;;;;;17.87;9.20;;;;;;;14.63;57.80;100309.75;6891210;28;20372;-79
2022/11/11 17:27:44;;;;;;;20.80;14.67;;;;;;;14.22;58.65;100290.53;6893068;28;20272;-81